createdAt,value
2019-03-08T00:01:10.856Z,9.50
2019-03-08T00:03:38.328Z,9.40
2019-03-08T00:06:07.211Z,9.40
2019-03-08T00:08:40.588Z,9.30
2019-03-08T00:11:28.122Z,9.30
2019-03-08T00:13:55.664Z,9.40
2019-03-08T00:16:23.236Z,9.30
2019-03-08T00:18:50.723Z,9.30
2019-03-08T00:21:18.459Z,9.30
2019-03-08T00:23:45.963Z,9.30
2019-03-08T00:26:13.465Z,9.30
2019-03-08T00:28:40.980Z,9.30
2019-03-08T00:31:10.184Z,9.20
2019-03-08T00:33:37.940Z,9.20
2019-03-08T00:36:05.432Z,9.10
2019-03-08T00:38:32.949Z,9.20
2019-03-08T00:41:00.457Z,9.20
2019-03-08T00:43:27.932Z,9.20
2019-03-08T00:45:55.439Z,9.30
2019-03-08T00:48:22.912Z,9.30
2019-03-08T00:50:50.730Z,9.30
2019-03-08T00:53:18.377Z,9.30
2019-03-08T00:55:52.965Z,9.40
2019-03-08T00:58:25.122Z,9.50
2019-03-08T01:00:54.677Z,9.50
2019-03-08T01:03:22.245Z,9.60
2019-03-08T01:05:49.865Z,9.60
2019-03-08T01:08:17.329Z,9.60
2019-03-08T01:10:44.895Z,9.60
2019-03-08T01:13:12.345Z,9.50
2019-03-08T01:15:40.127Z,9.50
2019-03-08T01:18:07.597Z,9.50
2019-03-08T01:20:35.113Z,9.50
2019-03-08T01:23:02.905Z,9.50
2019-03-08T01:25:30.538Z,9.40
2019-03-08T01:28:06.710Z,9.40
2019-03-08T01:30:34.595Z,9.40
2019-03-08T01:33:02.062Z,9.50
2019-03-08T01:35:29.668Z,9.50
2019-03-08T01:37:57.526Z,9.40
2019-03-08T01:40:25.046Z,9.30
2019-03-08T01:42:52.533Z,9.40
2019-03-08T01:45:19.984Z,9.40
2019-03-08T01:47:47.919Z,9.50
2019-03-08T01:50:15.692Z,9.40
2019-03-08T01:52:43.407Z,9.40
2019-03-08T01:55:11.296Z,9.40
2019-03-08T01:57:38.779Z,9.40
2019-03-08T02:00:08.470Z,9.30
2019-03-08T02:02:36.006Z,9.30
2019-03-08T02:05:04.432Z,9.30
2019-03-08T02:07:33.274Z,9.30
2019-03-08T02:10:00.801Z,9.20
2019-03-08T02:12:28.705Z,9.20
2019-03-08T02:14:56.251Z,9.20
2019-03-08T02:17:28.967Z,9.10
2019-03-08T02:19:56.493Z,9.10
2019-03-08T02:22:24.076Z,9.10
2019-03-08T02:24:51.980Z,9.10
2019-03-08T02:27:19.824Z,9.00
2019-03-08T02:29:48.082Z,8.90
2019-03-08T02:32:15.937Z,8.90
2019-03-08T02:34:43.612Z,8.80
2019-03-08T02:37:11.082Z,8.80
2019-03-08T02:39:38.836Z,8.80
2019-03-08T02:42:06.336Z,8.80
2019-03-08T02:44:33.873Z,8.80
2019-03-08T02:47:01.399Z,8.90
2019-03-08T02:49:28.855Z,8.90
2019-03-08T02:51:56.319Z,8.90
2019-03-08T02:54:24.012Z,8.80
2019-03-08T02:56:51.460Z,8.70
2019-03-08T02:59:18.937Z,8.70
2019-03-08T03:01:46.452Z,8.60
2019-03-08T03:04:14.408Z,8.60
2019-03-08T03:06:41.839Z,8.70
2019-03-08T03:09:09.488Z,8.70
2019-03-08T03:11:37.325Z,8.70
2019-03-08T03:14:05.201Z,8.70
2019-03-08T03:16:35.717Z,8.70
2019-03-08T03:19:04.255Z,8.60
2019-03-08T03:21:32.236Z,8.70
2019-03-08T03:24:09.644Z,8.60
2019-03-08T03:26:37.415Z,8.70
2019-03-08T03:29:05.349Z,8.60
2019-03-08T03:31:33.622Z,8.60
2019-03-08T03:34:01.635Z,8.60
2019-03-08T03:36:29.672Z,8.60
2019-03-08T03:38:57.648Z,8.60
2019-03-08T03:41:28.056Z,8.70
2019-03-08T03:43:55.985Z,8.60
2019-03-08T03:46:23.773Z,8.60
2019-03-08T03:48:51.837Z,8.60
2019-03-08T03:51:19.694Z,8.50
2019-03-08T03:53:48.018Z,8.50
2019-03-08T03:56:16.242Z,8.50
2019-03-08T03:58:44.108Z,8.60
2019-03-08T04:01:28.113Z,8.50
2019-03-08T04:03:55.997Z,8.50
2019-03-08T04:06:26.575Z,8.40
2019-03-08T04:08:56.957Z,8.40
2019-03-08T04:11:26.033Z,8.40
2019-03-08T04:13:53.938Z,8.40
2019-03-08T04:16:21.510Z,8.50
2019-03-08T04:18:49.944Z,8.50
2019-03-08T04:21:17.791Z,8.50
2019-03-08T04:23:45.816Z,8.50
2019-03-08T04:26:13.639Z,8.40
2019-03-08T04:28:41.694Z,8.40
2019-03-08T04:31:10.969Z,8.50
2019-03-08T04:33:39.022Z,8.50
2019-03-08T04:36:06.911Z,8.50
2019-03-08T04:38:35.762Z,8.50
2019-03-08T04:41:04.342Z,8.50
2019-03-08T04:43:32.254Z,8.50
2019-03-08T04:46:00.202Z,8.40
2019-03-08T04:48:28.135Z,8.30
2019-03-08T04:50:56.166Z,8.40
2019-03-08T04:53:24.501Z,8.40
2019-03-08T04:55:53.155Z,8.40
2019-03-08T04:58:29.166Z,8.40
2019-03-08T05:00:56.955Z,8.20
2019-03-08T05:03:27.914Z,8.20
2019-03-08T05:05:55.824Z,8.20
2019-03-08T05:08:23.731Z,8.10
2019-03-08T05:10:51.753Z,8.20
2019-03-08T05:13:19.940Z,8.20
2019-03-08T05:15:48.586Z,8.30
2019-03-08T05:18:16.532Z,8.20
2019-03-08T05:20:44.843Z,8.10
2019-03-08T05:23:12.852Z,7.90
2019-03-08T05:25:40.799Z,7.70
2019-03-08T05:28:08.712Z,7.50
2019-03-08T05:30:36.742Z,7.50
2019-03-08T05:33:04.665Z,7.30
2019-03-08T05:35:32.884Z,7.20
2019-03-08T05:38:00.873Z,7.30
2019-03-08T05:40:29.131Z,7.30
2019-03-08T05:42:56.884Z,7.20
2019-03-08T05:45:24.517Z,7.00
2019-03-08T05:47:52.668Z,7.00
2019-03-08T05:50:20.361Z,7.10
2019-03-08T05:52:48.192Z,7.10
2019-03-08T05:55:15.884Z,7.10
2019-03-08T05:57:43.622Z,7.00
2019-03-08T06:00:11.767Z,7.00
2019-03-08T06:02:39.297Z,7.00
2019-03-08T06:05:07.002Z,7.00
2019-03-08T06:07:35.203Z,7.00
2019-03-08T06:10:05.269Z,7.10
2019-03-08T06:12:32.950Z,7.00
2019-03-08T06:15:00.778Z,7.00
2019-03-08T06:17:28.393Z,6.90
2019-03-08T06:19:56.105Z,6.90
2019-03-08T06:22:23.728Z,6.90
2019-03-08T06:24:51.949Z,6.80
2019-03-08T06:27:19.556Z,6.90
2019-03-08T06:29:47.331Z,7.00
2019-03-08T06:32:14.859Z,7.10
2019-03-08T06:34:42.400Z,7.20
2019-03-08T06:37:10.173Z,7.10
2019-03-08T06:39:37.935Z,7.10
2019-03-08T06:42:05.646Z,7.10
2019-03-08T06:44:33.264Z,7.10
2019-03-08T06:47:01.237Z,7.00
2019-03-08T06:49:29.412Z,7.00
2019-03-08T06:52:03.538Z,7.00
2019-03-08T06:54:31.098Z,7.20
2019-03-08T06:56:58.920Z,7.20
2019-03-08T06:59:37.202Z,7.30
2019-03-08T07:02:06.020Z,7.30
2019-03-08T07:04:33.658Z,7.40
2019-03-08T07:07:01.369Z,7.50
2019-03-08T07:09:29.357Z,7.40
2019-03-08T07:11:56.969Z,7.50
2019-03-08T07:14:24.838Z,7.50
2019-03-08T07:16:52.443Z,7.60
2019-03-08T07:19:20.026Z,7.70
2019-03-08T07:22:00.356Z,7.70
2019-03-08T07:24:50.503Z,7.90
2019-03-08T07:27:36.221Z,7.90
2019-03-08T07:30:24.366Z,8.00
2019-03-08T07:33:12.445Z,7.90
2019-03-08T07:36:05.536Z,8.00
2019-03-08T07:39:04.928Z,8.10
2019-03-08T07:41:41.901Z,8.20
2019-03-08T07:44:38.329Z,8.30
2019-03-08T07:47:24.741Z,8.60
2019-03-08T07:50:21.081Z,8.70
2019-03-08T07:53:11.310Z,8.80
2019-03-08T07:55:56.933Z,9.10
2019-03-08T07:58:50.091Z,9.40
2019-03-08T08:01:37.318Z,9.40
2019-03-08T08:04:11.956Z,9.50
2019-03-08T08:07:02.254Z,9.70
2019-03-08T08:09:54.204Z,9.90
2019-03-08T08:12:38.251Z,9.90
2019-03-08T08:15:24.325Z,9.80
2019-03-08T08:18:01.121Z,9.70
2019-03-08T08:21:03.169Z,9.70
2019-03-08T08:23:45.608Z,9.50
2019-03-08T08:26:32.930Z,9.80
2019-03-08T08:29:11.794Z,10.00
2019-03-08T08:32:04.620Z,10.20
2019-03-08T08:35:00.537Z,10.30
2019-03-08T08:37:56.933Z,10.40
2019-03-08T08:40:53.045Z,10.30
2019-03-08T08:43:39.453Z,10.10
2019-03-08T08:46:16.703Z,10.00
2019-03-08T08:49:03.896Z,9.90
2019-03-08T08:51:49.813Z,9.80
2019-03-08T08:54:49.523Z,9.70
2019-03-08T08:57:39.336Z,9.70
2019-03-08T09:00:27.846Z,9.70
2019-03-08T09:03:04.242Z,9.70
2019-03-08T09:05:42.799Z,9.80
2019-03-08T09:08:21.375Z,9.90
2019-03-08T09:11:05.712Z,9.80
2019-03-08T09:13:46.384Z,9.80
2019-03-08T09:16:45.722Z,9.80
2019-03-08T09:19:41.063Z,9.80
2019-03-08T09:22:27.017Z,9.90
2019-03-08T09:25:10.158Z,10.00
2019-03-08T09:28:06.288Z,9.90
2019-03-08T09:31:02.641Z,10.10
2019-03-08T09:33:35.388Z,10.10
2019-03-08T09:36:18.185Z,10.10
2019-03-08T09:39:08.082Z,10.30
2019-03-08T09:41:55.092Z,10.60
2019-03-08T09:44:45.013Z,10.80
2019-03-08T09:47:38.585Z,11.00
2019-03-08T09:50:15.765Z,11.00
2019-03-08T09:53:05.763Z,10.70
2019-03-08T09:55:58.576Z,10.70
2019-03-08T09:58:48.385Z,10.70
2019-03-08T10:01:41.502Z,10.90
2019-03-08T10:04:21.813Z,10.90
2019-03-08T10:07:08.205Z,10.90
2019-03-08T10:09:45.029Z,10.80
2019-03-08T10:12:34.973Z,10.90
2019-03-08T10:15:28.063Z,10.90
2019-03-08T10:18:31.208Z,10.90
2019-03-08T10:21:17.073Z,10.80
2019-03-08T10:24:10.777Z,10.60
2019-03-08T10:26:56.909Z,10.50
2019-03-08T10:29:49.993Z,10.40
2019-03-08T10:32:40.397Z,10.30
2019-03-08T10:35:23.819Z,10.20
2019-03-08T10:38:22.373Z,10.30
2019-03-08T10:41:44.010Z,10.40
2019-03-08T10:44:34.490Z,10.50
2019-03-08T10:47:09.769Z,10.70
2019-03-08T10:50:02.857Z,11.00
2019-03-08T10:52:58.696Z,11.20
2019-03-08T10:55:46.068Z,11.60
2019-03-08T10:58:25.912Z,11.70
2019-03-08T11:01:31.021Z,11.90
2019-03-08T11:04:06.672Z,12.10
2019-03-08T11:06:51.385Z,12.10
2019-03-08T11:09:44.332Z,12.40
2019-03-08T11:12:30.622Z,12.40
2019-03-08T11:15:27.379Z,12.60
2019-03-08T11:18:17.812Z,12.60
2019-03-08T11:21:05.318Z,12.70
2019-03-08T11:23:55.891Z,13.00
2019-03-08T11:26:43.332Z,13.00
2019-03-08T11:29:36.145Z,12.60
2019-03-08T11:32:38.408Z,12.30
2019-03-08T11:35:25.014Z,12.00
2019-03-08T11:38:04.296Z,11.90
2019-03-08T11:41:00.100Z,11.60
2019-03-08T11:43:47.412Z,11.60
2019-03-08T11:46:29.893Z,11.70
2019-03-08T11:49:17.613Z,11.70
2019-03-08T11:52:08.234Z,11.50
2019-03-08T11:54:54.410Z,11.60
2019-03-08T11:57:31.380Z,11.80
2019-03-08T12:00:17.393Z,12.10
2019-03-08T12:03:07.861Z,12.20
2019-03-08T12:05:54.409Z,12.30
2019-03-08T12:08:47.228Z,12.50
2019-03-08T12:11:33.564Z,12.40
2019-03-08T12:14:37.747Z,12.40
2019-03-08T12:17:23.806Z,12.50
2019-03-08T12:20:01.135Z,12.60
2019-03-08T12:23:00.408Z,12.40
2019-03-08T12:25:54.345Z,12.30
2019-03-08T12:28:50.786Z,12.20
2019-03-08T12:31:35.294Z,12.30
2019-03-08T12:34:25.405Z,12.30
2019-03-08T12:37:05.693Z,12.30
2019-03-08T12:39:45.457Z,12.20
2019-03-08T12:42:35.964Z,12.10
2019-03-08T12:45:24.295Z,12.40
2019-03-08T12:48:07.987Z,12.30
2019-03-08T12:50:49.073Z,12.40
2019-03-08T12:53:33.042Z,12.10
2019-03-08T12:56:38.822Z,11.90
2019-03-08T12:59:25.080Z,11.80
2019-03-08T13:02:07.193Z,11.80
2019-03-08T13:04:49.085Z,11.70
2019-03-08T13:07:44.392Z,11.70
2019-03-08T13:10:13.672Z,11.80
2019-03-08T13:12:42.427Z,11.90
2019-03-08T13:15:13.826Z,12.00
2019-03-08T13:17:48.746Z,12.00
2019-03-08T13:20:17.780Z,11.90
2019-03-08T13:22:47.970Z,12.00
2019-03-08T13:25:17.157Z,12.00
2019-03-08T13:27:45.393Z,12.00
2019-03-08T13:30:16.772Z,11.90
2019-03-08T13:32:47.704Z,11.90
2019-03-08T13:35:15.599Z,12.00
2019-03-08T13:37:43.693Z,12.10
2019-03-08T13:40:12.806Z,12.20
2019-03-08T13:42:41.009Z,12.20
2019-03-08T13:45:11.301Z,12.20
2019-03-08T13:47:38.878Z,12.10
2019-03-08T13:50:08.713Z,12.00
2019-03-08T13:52:36.652Z,11.90
2019-03-08T13:55:05.697Z,11.90
2019-03-08T13:57:33.372Z,12.00
2019-03-08T14:00:00.857Z,12.10
2019-03-08T14:02:28.809Z,12.10
2019-03-08T14:04:56.704Z,12.10
2019-03-08T14:07:24.494Z,12.10
2019-03-08T14:09:52.533Z,12.00
2019-03-08T14:12:22.182Z,12.10
2019-03-08T14:14:50.283Z,12.10
2019-03-08T14:17:18.891Z,12.00
2019-03-08T14:19:46.706Z,11.90
2019-03-08T14:22:14.740Z,11.90
2019-03-08T14:24:43.494Z,11.90
2019-03-08T14:27:13.931Z,12.00
2019-03-08T14:29:42.150Z,12.10
2019-03-08T14:32:14.241Z,12.20
2019-03-08T14:34:49.615Z,12.30
2019-03-08T14:37:19.856Z,12.40
2019-03-08T14:39:47.429Z,12.50
2019-03-08T14:42:40.476Z,12.50
2019-03-08T14:45:19.841Z,12.50
2019-03-08T14:47:49.995Z,12.40
2019-03-08T14:50:18.265Z,12.30
2019-03-08T14:52:45.846Z,12.30
2019-03-08T14:55:23.905Z,12.40
2019-03-08T14:57:55.346Z,12.50
2019-03-08T15:00:28.619Z,12.50
2019-03-08T15:02:54.884Z,12.50
2019-03-08T15:05:22.703Z,12.40
2019-03-08T15:07:50.297Z,12.50
2019-03-08T15:10:19.088Z,12.40
2019-03-08T15:12:49.529Z,12.30
2019-03-08T15:15:17.280Z,12.40
2019-03-08T15:17:44.788Z,12.60
2019-03-08T15:20:15.296Z,12.70
2019-03-08T15:22:43.412Z,12.70
2019-03-08T15:25:12.644Z,12.60
2019-03-08T15:27:41.405Z,12.60
2019-03-08T15:30:11.462Z,12.50
2019-03-08T15:32:39.404Z,12.50
2019-03-08T15:35:08.635Z,12.50
2019-03-08T15:37:43.958Z,12.40
2019-03-08T15:40:09.259Z,12.30
2019-03-08T15:42:38.073Z,12.30
2019-03-08T15:45:07.038Z,12.40
2019-03-08T15:47:36.185Z,12.40
2019-03-08T15:50:08.320Z,12.50
2019-03-08T15:52:36.204Z,12.60
2019-03-08T15:55:04.932Z,12.50
2019-03-08T15:57:32.492Z,12.30
2019-03-08T16:00:00.415Z,12.20
2019-03-08T16:02:28.713Z,12.20
2019-03-08T16:04:56.928Z,12.10
2019-03-08T16:07:27.143Z,12.20
2019-03-08T16:09:54.752Z,12.10
2019-03-08T16:12:22.953Z,12.10
2019-03-08T16:14:51.192Z,12.10
2019-03-08T16:17:26.620Z,12.10
2019-03-08T16:19:58.780Z,12.10
2019-03-08T16:22:28.643Z,12.10
2019-03-08T16:24:57.183Z,12.10
2019-03-08T16:27:25.631Z,12.10
2019-03-08T16:29:53.643Z,11.90
2019-03-08T16:32:38.343Z,12.00
2019-03-08T16:35:06.243Z,12.00
2019-03-08T16:37:51.852Z,12.00
2019-03-08T16:40:34.588Z,12.00
2019-03-08T16:43:20.564Z,11.80
2019-03-08T16:46:00.881Z,11.70
2019-03-08T16:48:43.838Z,11.70
2019-03-08T16:51:34.514Z,11.70
2019-03-08T16:54:37.662Z,11.60
2019-03-08T16:57:35.525Z,11.50
2019-03-08T17:00:44.812Z,11.40
2019-03-08T17:07:03.464Z,11.30
2019-03-08T17:10:33.245Z,11.30
2019-03-08T17:13:34.316Z,11.40
2019-03-08T17:19:29.560Z,11.50
2019-03-08T17:22:15.940Z,11.40
2019-03-08T17:25:05.936Z,11.40
2019-03-08T17:27:46.834Z,11.30
2019-03-08T17:30:33.896Z,11.30
2019-03-08T17:33:38.181Z,11.30
2019-03-08T17:37:25.755Z,11.10
2019-03-08T17:40:19.558Z,11.10
2019-03-08T17:43:17.046Z,11.10
2019-03-08T17:45:51.969Z,11.10
2019-03-08T17:48:39.281Z,11.20
2019-03-08T17:51:17.460Z,11.20
2019-03-08T17:54:31.786Z,11.20
2019-03-08T17:57:49.478Z,11.20
2019-03-08T18:04:45.510Z,11.20
2019-03-08T18:07:43.769Z,11.30
2019-03-08T18:10:52.492Z,11.30
2019-03-08T18:17:59.344Z,11.30
2019-03-08T18:20:36.786Z,11.30
2019-03-08T18:23:21.180Z,11.30
2019-03-08T18:25:56.019Z,11.20
2019-03-08T18:28:38.319Z,11.20
2019-03-08T18:31:25.942Z,11.00
2019-03-08T18:34:17.886Z,11.00
2019-03-08T18:37:35.968Z,10.90
2019-03-08T18:56:38.536Z,10.50
2019-03-08T19:02:57.496Z,10.50
2019-03-08T19:56:49.132Z,9.80
2019-03-08T20:00:16.369Z,9.90
2019-03-08T20:18:16.047Z,10.10
2019-03-08T20:24:18.408Z,10.10
2019-03-08T20:51:06.082Z,9.90
2019-03-08T20:54:08.135Z,9.80
2019-03-08T21:05:04.754Z,9.80
2019-03-08T21:07:39.718Z,9.70
2019-03-08T21:10:12.091Z,9.80
2019-03-08T21:12:42.546Z,9.70
2019-03-08T21:37:58.816Z,9.30
2019-03-08T21:40:45.726Z,9.40
2019-03-08T21:43:33.015Z,9.40
2019-03-08T21:46:10.030Z,9.50
2019-03-08T21:48:57.586Z,9.50
2019-03-08T21:51:36.461Z,9.60
2019-03-08T21:54:14.250Z,9.60
2019-03-08T21:56:46.022Z,9.70
2019-03-08T21:59:15.433Z,9.70
2019-03-08T22:02:03.839Z,9.60
2019-03-08T22:04:50.807Z,9.70
2019-03-08T22:07:48.186Z,9.60
2019-03-08T22:10:56.265Z,9.60
2019-03-08T22:13:41.824Z,9.70
2019-03-08T22:19:55.718Z,9.60
2019-03-08T22:29:09.337Z,9.50
2019-03-08T22:31:45.129Z,9.50
2019-03-08T22:35:06.537Z,9.50
2019-03-08T22:37:46.942Z,9.50
2019-03-08T22:40:24.889Z,9.50
2019-03-08T22:43:06.284Z,9.50
2019-03-08T22:45:48.529Z,9.50
2019-03-08T22:48:39.219Z,9.40
2019-03-08T22:51:18.467Z,9.50
2019-03-08T23:02:41.552Z,9.40
2019-03-08T23:57:30.936Z,8.60
